createdAt,value
2023-01-19T00:01:02.096Z,81.99
2023-01-19T00:03:35.278Z,82.04
2023-01-19T00:06:08.690Z,81.83
2023-01-19T00:08:41.239Z,81.89
2023-01-19T00:11:15.678Z,81.93
2023-01-19T00:13:51.226Z,82.02
2023-01-19T00:16:24.065Z,82.12
2023-01-19T00:18:56.666Z,82.48
2023-01-19T00:21:29.233Z,81.90
2023-01-19T00:24:01.658Z,82.31
2023-01-19T00:26:35.613Z,82.43
2023-01-19T00:29:08.106Z,81.81
2023-01-19T00:31:40.822Z,82.13
2023-01-19T00:34:13.382Z,82.46
2023-01-19T00:36:45.996Z,82.34
2023-01-19T00:39:18.394Z,82.02
2023-01-19T00:42:11.003Z,82.04
2023-01-19T00:44:43.726Z,82.39
2023-01-19T00:47:16.321Z,81.97
2023-01-19T00:49:48.643Z,82.46
2023-01-19T00:52:21.176Z,82.47
2023-01-19T00:54:53.500Z,82.54
2023-01-19T00:57:28.800Z,82.21
2023-01-19T01:00:01.916Z,81.92
2023-01-19T01:02:37.686Z,81.83
2023-01-19T01:05:10.863Z,81.91
2023-01-19T01:07:45.502Z,82.52
2023-01-19T01:10:20.641Z,82.06
2023-01-19T01:15:30.838Z,82.02
2023-01-19T01:18:03.424Z,81.97
2023-01-19T01:20:37.601Z,82.18
2023-01-19T01:23:10.229Z,82.26
2023-01-19T01:25:42.860Z,81.69
2023-01-19T01:28:16.846Z,81.92
2023-01-19T01:30:53.743Z,82.30
2023-01-19T01:33:39.820Z,82.35
2023-01-19T01:36:13.978Z,82.46
2023-01-19T01:38:46.528Z,82.43
2023-01-19T01:41:20.584Z,82.08
2023-01-19T01:43:59.071Z,82.77
2023-01-19T01:46:32.174Z,82.02
2023-01-19T01:49:10.805Z,82.52
2023-01-19T01:51:48.469Z,82.07
2023-01-19T01:54:24.934Z,81.92
2023-01-19T01:57:01.964Z,81.80
2023-01-19T01:59:42.343Z,82.09
2023-01-19T02:02:36.132Z,82.44
2023-01-19T02:05:11.832Z,82.16
2023-01-19T02:08:07.103Z,82.17
2023-01-19T02:11:00.045Z,82.76
2023-01-19T02:13:35.670Z,82.03
2023-01-19T02:16:11.208Z,81.97
2023-01-19T02:18:45.404Z,82.10
2023-01-19T02:21:23.015Z,82.70
2023-01-19T02:23:58.350Z,82.18
2023-01-19T02:26:34.537Z,82.86
2023-01-19T02:29:09.717Z,82.75
2023-01-19T02:31:42.967Z,82.49
2023-01-19T02:34:18.144Z,82.87
2023-01-19T02:36:53.790Z,82.52
2023-01-19T02:39:33.513Z,82.38
2023-01-19T02:42:10.036Z,82.95
2023-01-19T02:44:45.493Z,82.79
2023-01-19T02:47:18.620Z,82.27
2023-01-19T02:49:57.339Z,82.78
2023-01-19T02:52:30.685Z,82.99
2023-01-19T02:55:15.583Z,82.49
2023-01-19T02:57:59.803Z,82.45
2023-01-19T03:00:42.506Z,82.76
2023-01-19T03:03:27.279Z,82.52
2023-01-19T03:06:06.459Z,82.91
2023-01-19T03:08:48.402Z,83.44
2023-01-19T03:11:25.495Z,83.62
2023-01-19T03:14:02.239Z,83.02
2023-01-19T03:16:41.305Z,83.58
2023-01-19T03:19:19.445Z,83.04
2023-01-19T03:21:55.754Z,83.44
2023-01-19T03:24:31.815Z,83.44
2023-01-19T03:27:11.854Z,83.24
2023-01-19T03:29:51.148Z,83.22
2023-01-19T03:32:30.510Z,82.83
2023-01-19T03:35:08.693Z,82.90
2023-01-19T03:37:45.744Z,83.33
2023-01-19T03:40:18.951Z,83.41
2023-01-19T03:42:53.533Z,83.67
2023-01-19T03:45:26.932Z,83.02
2023-01-19T03:48:00.150Z,83.67
2023-01-19T03:50:32.816Z,83.25
2023-01-19T03:53:10.802Z,83.63
2023-01-19T03:55:46.691Z,83.02
2023-01-19T03:58:20.660Z,83.44
2023-01-19T04:00:53.339Z,83.42
2023-01-19T04:03:25.793Z,83.21
2023-01-19T04:05:58.462Z,83.39
2023-01-19T04:08:31.838Z,83.20
2023-01-19T04:11:04.885Z,83.68
2023-01-19T04:13:39.049Z,83.59
2023-01-19T04:16:12.039Z,83.00
2023-01-19T04:18:44.513Z,82.61
2023-01-19T04:21:17.298Z,83.07
2023-01-19T04:23:50.150Z,83.41
2023-01-19T04:26:23.031Z,83.35
2023-01-19T04:28:58.028Z,83.44
2023-01-19T04:31:31.782Z,82.98
2023-01-19T04:34:04.591Z,83.17
2023-01-19T04:36:37.168Z,83.67
2023-01-19T04:39:11.800Z,83.30
2023-01-19T04:41:44.790Z,82.84
2023-01-19T04:44:18.705Z,83.51
2023-01-19T04:46:52.366Z,83.28
2023-01-19T04:49:24.931Z,83.43
2023-01-19T04:51:57.509Z,83.44
2023-01-19T04:54:30.815Z,83.16
2023-01-19T04:57:03.484Z,83.13
2023-01-19T04:59:37.367Z,83.47
2023-01-19T05:02:10.291Z,83.20
2023-01-19T05:04:42.816Z,83.42
2023-01-19T05:07:15.450Z,83.49
2023-01-19T05:09:48.051Z,84.09
2023-01-19T05:12:21.191Z,83.40
2023-01-19T05:14:55.163Z,83.87
2023-01-19T05:17:28.008Z,83.75
2023-01-19T05:20:00.429Z,83.45
2023-01-19T05:22:33.087Z,83.83
2023-01-19T05:25:08.722Z,83.65
2023-01-19T05:27:41.310Z,84.11
2023-01-19T05:30:15.653Z,83.85
2023-01-19T05:32:48.332Z,83.64
2023-01-19T05:35:31.296Z,83.55
2023-01-19T05:38:08.150Z,83.04
2023-01-19T05:40:40.605Z,83.73
2023-01-19T05:43:13.925Z,83.75
2023-01-19T05:45:47.686Z,83.40
2023-01-19T05:48:20.487Z,84.07
2023-01-19T05:50:57.954Z,83.49
2023-01-19T05:53:30.571Z,83.73
2023-01-19T05:56:05.163Z,83.69
2023-01-19T05:58:41.781Z,83.02
2023-01-19T06:01:15.607Z,83.25
2023-01-19T06:03:49.061Z,84.00
2023-01-19T06:06:21.707Z,83.29
2023-01-19T06:08:54.984Z,83.19
2023-01-19T06:11:27.487Z,83.84
2023-01-19T06:14:00.118Z,83.98
2023-01-19T06:16:34.349Z,84.44
2023-01-19T06:19:07.204Z,84.33
2023-01-19T06:21:39.657Z,83.86
2023-01-19T06:24:13.830Z,83.78
2023-01-19T06:26:47.144Z,83.79
2023-01-19T06:29:19.851Z,83.56
2023-01-19T06:31:53.869Z,83.84
2023-01-19T06:34:29.133Z,83.62
2023-01-19T06:37:01.759Z,83.61
2023-01-19T06:39:34.263Z,83.58
2023-01-19T06:42:06.819Z,84.40
2023-01-19T06:44:42.501Z,83.74
2023-01-19T06:47:16.713Z,83.81
2023-01-19T06:49:49.447Z,84.20
2023-01-19T06:52:21.970Z,83.36
2023-01-19T06:54:54.455Z,83.93
2023-01-19T06:57:28.995Z,83.72
2023-01-19T07:00:02.377Z,83.83
2023-01-19T07:02:42.710Z,83.68
2023-01-19T07:05:15.591Z,83.76
2023-01-19T07:07:52.413Z,84.05
2023-01-19T07:10:25.569Z,83.99
2023-01-19T07:12:58.269Z,83.91
2023-01-19T07:15:31.405Z,83.75
2023-01-19T07:18:09.836Z,84.51
2023-01-19T07:20:44.510Z,84.10
2023-01-19T07:23:17.041Z,84.38
2023-01-19T07:25:49.835Z,84.21
2023-01-19T07:28:22.313Z,83.87
2023-01-19T07:30:56.144Z,84.08
2023-01-19T07:33:30.267Z,84.25
2023-01-19T07:36:02.895Z,84.00
2023-01-19T07:38:35.371Z,84.04
2023-01-19T07:41:10.217Z,83.50
2023-01-19T07:43:42.898Z,84.56
2023-01-19T07:46:15.753Z,84.15
2023-01-19T07:48:50.516Z,83.76
2023-01-19T07:51:23.348Z,83.93
2023-01-19T07:53:55.749Z,84.22
2023-01-19T07:56:32.691Z,83.58
2023-01-19T07:59:06.794Z,84.36
2023-01-19T08:01:39.572Z,83.84
2023-01-19T08:04:13.685Z,83.78
2023-01-19T08:06:47.610Z,84.00
2023-01-19T08:09:20.066Z,84.28
2023-01-19T08:11:52.686Z,84.01
2023-01-19T08:14:25.117Z,84.33
2023-01-19T08:16:59.939Z,84.18
2023-01-19T08:19:33.997Z,84.78
2023-01-19T08:22:06.664Z,83.99
2023-01-19T08:24:39.135Z,84.87
2023-01-19T08:27:14.857Z,85.02
2023-01-19T08:29:47.704Z,84.65
2023-01-19T08:32:20.405Z,84.45
2023-01-19T08:34:54.273Z,83.87
2023-01-19T08:37:26.711Z,84.18
2023-01-19T08:39:59.224Z,84.99
2023-01-19T08:42:31.865Z,85.26
2023-01-19T08:45:05.242Z,85.26
2023-01-19T08:47:37.974Z,85.23
2023-01-19T08:50:12.490Z,85.04
2023-01-19T08:52:45.096Z,84.19
2023-01-19T08:55:17.962Z,84.94
2023-01-19T08:57:52.860Z,84.29
2023-01-19T09:00:27.273Z,84.60
2023-01-19T09:03:02.317Z,84.65
2023-01-19T09:05:38.943Z,84.63
2023-01-19T09:08:13.953Z,84.75
2023-01-19T09:10:47.905Z,84.13
2023-01-19T09:13:21.004Z,84.71
2023-01-19T09:15:53.596Z,84.49
2023-01-19T09:18:26.250Z,84.64
2023-01-19T09:21:01.016Z,84.91
2023-01-19T09:23:33.708Z,84.18
2023-01-19T09:26:06.933Z,84.97
2023-01-19T09:28:39.872Z,85.19
2023-01-19T09:31:12.531Z,84.13
2023-01-19T09:33:45.460Z,84.90
2023-01-19T09:36:19.393Z,84.76
2023-01-19T09:38:52.021Z,84.61
2023-01-19T09:41:26.296Z,84.99
2023-01-19T09:44:01.033Z,84.46
2023-01-19T09:46:39.011Z,84.50
2023-01-19T09:49:14.844Z,85.09
2023-01-19T09:51:50.634Z,84.40
2023-01-19T09:54:29.974Z,84.44
2023-01-19T09:57:05.212Z,84.42
2023-01-19T09:59:38.933Z,84.96
2023-01-19T10:02:26.708Z,85.32
2023-01-19T10:05:00.866Z,84.47
2023-01-19T10:07:55.567Z,84.72
2023-01-19T10:10:30.048Z,84.44
2023-01-19T10:13:24.392Z,85.07
2023-01-19T10:16:04.861Z,83.83
2023-01-19T10:18:48.967Z,84.20
2023-01-19T10:21:25.173Z,84.49
2023-01-19T10:24:06.316Z,84.23
2023-01-19T10:26:44.470Z,85.23
2023-01-19T10:29:25.581Z,84.29
2023-01-19T10:32:05.523Z,84.92
2023-01-19T10:34:37.969Z,85.10
2023-01-19T10:37:22.846Z,84.92
2023-01-19T10:39:59.457Z,85.06
2023-01-19T10:42:32.186Z,85.00
2023-01-19T10:45:15.293Z,84.97
2023-01-19T10:47:49.316Z,84.36
2023-01-19T10:50:27.886Z,84.89
2023-01-19T10:53:04.165Z,84.95
2023-01-19T10:55:40.195Z,85.00
2023-01-19T10:58:28.824Z,84.58
2023-01-19T11:01:14.085Z,84.12
2023-01-19T11:03:47.179Z,84.57
2023-01-19T11:06:22.605Z,84.52
2023-01-19T11:09:12.620Z,84.92
2023-01-19T11:11:49.769Z,84.73
2023-01-19T11:14:24.683Z,84.62
2023-01-19T11:16:58.940Z,84.14
2023-01-19T11:19:33.933Z,84.65
2023-01-19T11:22:16.917Z,83.87
2023-01-19T11:24:50.419Z,84.33
2023-01-19T11:27:24.470Z,83.98
2023-01-19T11:30:05.467Z,84.23
2023-01-19T11:32:38.082Z,84.75
2023-01-19T11:35:36.677Z,84.02
2023-01-19T11:38:18.680Z,84.25
2023-01-19T11:40:54.684Z,83.69
2023-01-19T11:43:49.020Z,84.23
2023-01-19T11:46:27.079Z,84.22
2023-01-19T11:49:05.987Z,83.66
2023-01-19T11:51:49.450Z,83.41
2023-01-19T11:54:29.799Z,83.58
2023-01-19T11:57:03.457Z,83.44
2023-01-19T11:59:37.395Z,84.33
2023-01-19T12:02:20.359Z,83.88
2023-01-19T12:04:55.970Z,83.75
2023-01-19T12:07:32.034Z,83.45
2023-01-19T12:10:16.907Z,83.82
2023-01-19T12:12:50.069Z,83.27
2023-01-19T12:15:32.082Z,83.59
2023-01-19T12:18:08.095Z,83.56
2023-01-19T12:20:46.628Z,83.19
2023-01-19T12:23:33.129Z,83.08
2023-01-19T12:26:28.921Z,83.39
2023-01-19T12:29:07.321Z,83.14
2023-01-19T12:31:44.633Z,83.64
2023-01-19T12:34:40.320Z,83.28
2023-01-19T12:37:37.395Z,83.90
2023-01-19T12:40:26.503Z,83.21
2023-01-19T12:43:01.629Z,82.83
2023-01-19T12:45:36.317Z,83.31
2023-01-19T12:48:25.373Z,83.11
2023-01-19T12:51:00.856Z,83.81
2023-01-19T12:53:33.458Z,83.50
2023-01-19T12:56:12.183Z,82.71
2023-01-19T12:58:49.625Z,83.50
2023-01-19T13:01:25.074Z,83.88
2023-01-19T13:04:08.253Z,83.39
2023-01-19T13:07:10.783Z,83.70
2023-01-19T13:09:43.507Z,83.30
2023-01-19T13:12:24.469Z,83.30
2023-01-19T13:15:28.859Z,83.84
2023-01-19T13:18:02.735Z,83.77
2023-01-19T13:20:46.159Z,83.62
2023-01-19T13:23:25.560Z,83.90
2023-01-19T13:26:04.416Z,83.67
2023-01-19T13:28:42.490Z,83.38
2023-01-19T13:31:15.686Z,83.53
2023-01-19T13:33:52.074Z,83.87
2023-01-19T13:36:32.852Z,83.57
2023-01-19T13:39:08.164Z,83.02
2023-01-19T13:41:42.379Z,83.54
2023-01-19T13:44:21.664Z,83.95
2023-01-19T13:46:56.568Z,84.07
2023-01-19T13:49:33.836Z,83.49
2023-01-19T13:52:17.396Z,84.22
2023-01-19T13:54:50.919Z,83.19
2023-01-19T13:57:28.879Z,83.32
2023-01-19T14:00:07.837Z,83.48
2023-01-19T14:02:59.487Z,83.07
2023-01-19T14:05:34.450Z,83.27
2023-01-19T14:08:15.481Z,83.09
2023-01-19T14:11:02.342Z,83.61
2023-01-19T14:13:41.472Z,83.56
2023-01-19T14:16:16.527Z,83.19
2023-01-19T14:18:59.776Z,83.51
2023-01-19T14:21:39.931Z,83.64
2023-01-19T14:24:29.761Z,83.31
2023-01-19T14:27:20.293Z,83.62
2023-01-19T14:30:10.123Z,83.38
2023-01-19T14:32:47.841Z,83.23
2023-01-19T14:35:25.388Z,83.77
2023-01-19T14:37:58.357Z,83.26
2023-01-19T14:40:38.634Z,83.77
2023-01-19T14:43:13.645Z,83.42
2023-01-19T14:45:48.308Z,83.37
2023-01-19T14:48:22.472Z,83.31
2023-01-19T14:51:06.094Z,83.63
2023-01-19T14:53:38.944Z,83.20
2023-01-19T14:56:12.993Z,83.36
2023-01-19T14:58:45.538Z,82.93
2023-01-19T15:01:18.523Z,83.69
2023-01-19T15:03:51.086Z,83.18
2023-01-19T15:06:24.596Z,83.19
2023-01-19T15:08:57.164Z,83.58
2023-01-19T15:11:34.129Z,83.52
2023-01-19T15:14:07.369Z,83.65
2023-01-19T15:16:40.531Z,83.52
2023-01-19T15:19:14.391Z,83.78
2023-01-19T15:21:47.121Z,83.69
2023-01-19T15:24:19.962Z,83.31
2023-01-19T15:27:02.920Z,83.67
2023-01-19T15:29:35.506Z,83.60
2023-01-19T15:32:12.700Z,83.40
2023-01-19T15:34:45.451Z,83.98
2023-01-19T15:37:17.911Z,83.73
2023-01-19T15:39:50.621Z,84.19
2023-01-19T15:42:24.610Z,83.61
2023-01-19T15:44:57.122Z,83.78
2023-01-19T15:47:29.566Z,84.08
2023-01-19T15:50:02.331Z,83.51
2023-01-19T15:52:35.642Z,83.82
2023-01-19T15:55:11.199Z,83.36
2023-01-19T15:57:47.490Z,83.64
2023-01-19T16:00:23.235Z,84.32
2023-01-19T16:02:55.977Z,84.01
2023-01-19T16:05:41.917Z,83.68
2023-01-19T16:08:15.399Z,83.62
2023-01-19T16:10:49.801Z,83.54
2023-01-19T16:13:24.011Z,83.84
2023-01-19T16:15:56.603Z,83.36
2023-01-19T16:18:29.155Z,83.99
2023-01-19T16:21:09.234Z,84.04
2023-01-19T16:23:41.624Z,83.83
2023-01-19T16:26:26.933Z,83.99
2023-01-19T16:29:08.176Z,83.76
2023-01-19T16:31:43.620Z,83.60
2023-01-19T16:34:16.570Z,83.61
2023-01-19T16:36:49.443Z,84.34
2023-01-19T16:39:22.429Z,84.12
2023-01-19T16:41:55.182Z,84.04
2023-01-19T16:44:29.962Z,84.41
2023-01-19T16:47:05.211Z,83.50
2023-01-19T16:49:40.497Z,84.37
2023-01-19T16:52:13.465Z,84.20
2023-01-19T16:54:46.286Z,84.10
2023-01-19T16:57:19.025Z,84.18
2023-01-19T17:00:04.166Z,83.98
2023-01-19T17:02:40.669Z,84.21
2023-01-19T17:05:13.322Z,84.24
2023-01-19T17:07:46.417Z,84.39
2023-01-19T17:10:21.729Z,84.71
2023-01-19T17:12:54.613Z,84.73
2023-01-19T17:15:30.989Z,84.51
2023-01-19T17:18:04.021Z,84.30
2023-01-19T17:20:36.962Z,84.05
2023-01-19T17:23:09.649Z,84.78
2023-01-19T17:25:42.723Z,84.13
2023-01-19T17:28:16.230Z,84.16
2023-01-19T17:31:26.715Z,84.23
2023-01-19T17:34:01.682Z,84.55
2023-01-19T17:36:34.663Z,84.09
2023-01-19T17:39:11.828Z,84.41
2023-01-19T17:41:44.880Z,84.60
2023-01-19T17:44:20.867Z,84.03
2023-01-19T17:46:55.495Z,84.13
2023-01-19T17:49:28.314Z,84.80
2023-01-19T17:52:01.081Z,84.16
2023-01-19T17:54:34.177Z,83.82
2023-01-19T17:57:06.713Z,84.37
2023-01-19T17:59:42.231Z,84.00
2023-01-19T18:02:18.654Z,84.22
2023-01-19T18:04:52.984Z,84.17
2023-01-19T18:07:25.640Z,84.13
2023-01-19T18:10:00.884Z,84.09
2023-01-19T18:12:35.939Z,84.15
2023-01-19T18:15:10.292Z,84.08
2023-01-19T18:17:44.268Z,83.59
2023-01-19T18:20:20.497Z,84.48
2023-01-19T18:22:53.534Z,84.15
2023-01-19T18:25:30.699Z,84.19
2023-01-19T18:28:05.539Z,83.88
2023-01-19T18:30:38.842Z,84.11
2023-01-19T18:33:12.893Z,84.41
2023-01-19T18:35:48.737Z,83.75
2023-01-19T18:38:22.904Z,83.78
2023-01-19T18:41:06.979Z,84.09
2023-01-19T18:43:40.240Z,83.59
2023-01-19T18:46:12.998Z,83.92
2023-01-19T18:48:58.984Z,84.06
2023-01-19T18:51:32.012Z,83.55
2023-01-19T18:54:05.000Z,84.13
2023-01-19T18:56:37.661Z,83.96
2023-01-19T18:59:13.211Z,84.08
2023-01-19T19:01:46.417Z,83.96
2023-01-19T19:04:20.681Z,84.09
2023-01-19T19:06:55.680Z,84.01
2023-01-19T19:09:33.358Z,83.29
2023-01-19T19:12:10.039Z,83.41
2023-01-19T19:14:43.352Z,83.17
2023-01-19T19:17:17.342Z,83.96
2023-01-19T19:19:51.693Z,84.48
2023-01-19T19:22:27.357Z,83.22
2023-01-19T19:25:00.959Z,83.67
2023-01-19T19:27:34.118Z,83.05
2023-01-19T19:30:08.075Z,83.39
2023-01-19T19:32:51.594Z,83.27
2023-01-19T19:35:28.912Z,83.20
2023-01-19T19:38:09.461Z,83.33
2023-01-19T19:40:58.125Z,83.91
2023-01-19T19:43:47.567Z,83.49
2023-01-19T19:46:28.539Z,83.66
2023-01-19T19:49:01.840Z,83.19
2023-01-19T19:51:38.094Z,83.54
2023-01-19T19:54:11.710Z,83.69
2023-01-19T19:56:44.848Z,84.01
2023-01-19T19:59:18.017Z,83.32
2023-01-19T20:01:54.592Z,83.73
2023-01-19T20:04:28.118Z,83.73
2023-01-19T20:07:09.912Z,83.67
2023-01-19T20:09:48.776Z,83.12
2023-01-19T20:12:21.328Z,83.45
2023-01-19T20:14:54.018Z,83.41
2023-01-19T20:17:27.655Z,83.77
2023-01-19T20:20:02.567Z,83.36
2023-01-19T20:22:37.251Z,82.95
2023-01-19T20:25:10.324Z,83.22
2023-01-19T20:27:44.980Z,82.70
2023-01-19T20:30:19.167Z,83.75
2023-01-19T20:32:51.825Z,82.84
2023-01-19T20:35:24.454Z,82.67
2023-01-19T20:37:58.504Z,83.46
2023-01-19T20:40:31.144Z,83.49
2023-01-19T20:43:03.827Z,83.15
2023-01-19T20:45:36.487Z,83.34
2023-01-19T20:48:09.034Z,83.32
2023-01-19T20:50:41.774Z,83.23
2023-01-19T20:53:15.934Z,83.56
2023-01-19T20:55:48.428Z,83.18
2023-01-19T20:58:20.874Z,83.06
2023-01-19T21:00:53.517Z,82.66
2023-01-19T21:03:26.235Z,82.62
2023-01-19T21:05:59.703Z,82.78
2023-01-19T21:08:33.957Z,83.50
2023-01-19T21:11:07.409Z,82.87
2023-01-19T21:13:39.837Z,82.99
2023-01-19T21:16:12.997Z,83.08
2023-01-19T21:18:45.482Z,82.26
2023-01-19T21:21:29.971Z,82.30
2023-01-19T21:24:05.627Z,82.31
2023-01-19T21:26:38.403Z,82.19
2023-01-19T21:29:13.481Z,82.77
2023-01-19T21:31:46.217Z,82.81
2023-01-19T21:34:19.286Z,82.15
2023-01-19T21:36:52.093Z,82.41
2023-01-19T21:39:25.975Z,82.18
2023-01-19T21:41:58.517Z,82.65
2023-01-19T21:44:31.052Z,82.85
2023-01-19T21:47:06.882Z,82.76
2023-01-19T21:49:39.502Z,82.71
2023-01-19T21:52:12.028Z,83.33
2023-01-19T21:54:45.892Z,82.58
2023-01-19T21:57:20.003Z,82.86
2023-01-19T21:59:52.464Z,82.82
2023-01-19T22:02:37.886Z,83.24
2023-01-19T22:05:11.498Z,82.89
2023-01-19T22:07:44.478Z,83.23
2023-01-19T22:10:18.797Z,82.78
2023-01-19T22:12:51.250Z,82.29
2023-01-19T22:15:23.656Z,82.41
2023-01-19T22:17:56.110Z,82.09
2023-01-19T22:20:28.600Z,82.37
2023-01-19T22:23:01.248Z,82.45
2023-01-19T22:25:35.244Z,82.64
2023-01-19T22:28:07.709Z,82.99
2023-01-19T22:30:40.357Z,82.55
2023-01-19T22:33:12.926Z,81.90
2023-01-19T22:35:45.427Z,82.25
2023-01-19T22:38:17.870Z,82.03
2023-01-19T22:40:51.760Z,82.45
2023-01-19T22:43:24.274Z,82.00
2023-01-19T22:45:59.223Z,82.16
2023-01-19T22:48:32.029Z,82.71
2023-01-19T22:51:04.649Z,81.76
2023-01-19T22:53:37.210Z,82.35
2023-01-19T22:56:13.409Z,81.77
2023-01-19T22:58:47.444Z,81.88
2023-01-19T23:01:22.718Z,82.21
2023-01-19T23:03:55.527Z,82.22
2023-01-19T23:06:30.051Z,81.67
2023-01-19T23:09:05.833Z,81.65
2023-01-19T23:11:41.228Z,81.45
2023-01-19T23:14:16.183Z,81.58
2023-01-19T23:16:48.655Z,82.17
2023-01-19T23:19:21.239Z,82.15
2023-01-19T23:21:53.790Z,81.67
2023-01-19T23:24:26.497Z,81.60
2023-01-19T23:27:02.431Z,82.04
2023-01-19T23:29:35.225Z,81.68
2023-01-19T23:32:07.797Z,81.44
2023-01-19T23:34:40.601Z,82.22
2023-01-19T23:37:13.176Z,81.93
2023-01-19T23:39:45.757Z,81.06
2023-01-19T23:42:19.665Z,81.38
2023-01-19T23:44:52.155Z,81.86
2023-01-19T23:47:24.675Z,81.67
2023-01-19T23:49:57.183Z,80.92
2023-01-19T23:52:29.889Z,81.38
2023-01-19T23:55:02.361Z,81.24
2023-01-19T23:57:37.379Z,81.96
